Time;durP1;ratioP1;P1;durP2;ratioP2;P2;SDS_P1;SDS_P2;PMS_P1;PMS_P2;Temp;Humidity;BMP_temperature;BMP_pressure;BME280_temperature;BME280_humidity;BME280_pressure;Samples;Min_cycle;Max_cycle;Signal;HPM_P1;HPM_P2
2021/06/07 00:01:25;;;;;;;5.07;3.00;;;14.10;99.90;;;;;;4155689;28;20471;-67
2021/06/07 00:03:26;;;;;;;5.33;2.93;;;14.10;99.90;;;;;;4155175;28;20030;-67
2021/06/07 00:05:28;;;;;;;4.33;2.93;;;14.10;99.90;;;;;;4168339;28;20029;-68
2021/06/07 00:07:29;;;;;;;3.17;2.80;;;14.10;99.90;;;;;;4171934;28;20110;-67
2021/06/07 00:09:30;;;;;;;3.90;3.23;;;14.00;99.90;;;;;;4171534;28;20057;-67
2021/06/07 00:11:31;;;;;;;3.90;3.20;;;14.00;99.90;;;;;;4172125;28;20037;-67
2021/06/07 00:13:34;;;;;;;5.33;3.13;;;13.90;99.90;;;;;;4173660;28;20037;-66
2021/06/07 00:15:35;;;;;;;6.07;3.40;;;13.80;99.90;;;;;;4175561;28;20021;-66
2021/06/07 00:17:37;;;;;;;7.60;3.53;;;13.70;99.90;;;;;;4174886;28;20420;-66
2021/06/07 00:19:40;;;;;;;7.83;4.07;;;13.60;99.90;;;;;;4175877;28;20469;-66
2021/06/07 00:21:42;;;;;;;6.60;3.83;;;13.50;99.90;;;;;;4174808;28;20097;-66
2021/06/07 00:23:44;;;;;;;4.30;2.63;;;13.50;99.90;;;;;;4175363;28;20037;-67
2021/06/07 00:25:46;;;;;;;5.13;2.90;;;13.50;99.90;;;;;;4173761;28;20086;-67
2021/06/07 00:27:47;;;;;;;5.30;2.87;;;13.40;99.90;;;;;;4175754;28;20044;-66
2021/06/07 00:29:48;;;;;;;4.40;3.00;;;13.40;99.90;;;;;;4174555;28;20087;-66
2021/06/07 00:31:49;;;;;;;4.53;2.93;;;13.40;99.90;;;;;;4173742;28;20029;-67
2021/06/07 00:33:51;;;;;;;5.53;3.07;;;13.30;99.90;;;;;;4156360;28;20911;-67
2021/06/07 00:35:52;;;;;;;4.60;3.00;;;13.30;99.90;;;;;;4175024;28;20673;-67
2021/06/07 00:37:53;;;;;;;6.37;3.13;;;13.20;99.90;;;;;;4174496;28;20056;-67
2021/06/07 00:39:55;;;;;;;5.13;3.27;;;13.30;99.90;;;;;;4175194;28;20721;-67
2021/06/07 00:41:56;;;;;;;4.33;3.43;;;13.30;99.90;;;;;;4172810;28;20553;-66
2021/06/07 00:43:59;;;;;;;4.83;2.83;;;13.30;99.90;;;;;;4174905;28;20029;-66
2021/06/07 00:46:00;;;;;;;6.40;2.97;;;13.20;99.90;;;;;;4174866;28;20489;-66
2021/06/07 00:48:03;;;;;;;3.93;2.87;;;13.30;99.90;;;;;;4173824;28;20087;-67
2021/06/07 00:50:14;;;;;;;5.23;3.10;;;13.30;99.90;;;;;;4175709;28;20087;-67
2021/06/07 00:52:15;;;;;;;4.63;2.92;;;13.30;99.90;;;;;;4174429;28;20028;-66
2021/06/07 00:54:17;;;;;;;3.10;2.80;;;13.40;99.90;;;;;;4174561;28;20036;-67
2021/06/07 00:56:18;;;;;;;3.83;2.43;;;13.40;99.90;;;;;;4173300;28;20040;-66
2021/06/07 00:58:24;;;;;;;3.80;2.57;;;13.40;99.90;;;;;;4173535;28;20032;-66
2021/06/07 01:00:26;;;;;;;2.90;2.63;;;13.40;99.90;;;;;;4174069;28;20451;-66
2021/06/07 01:02:27;;;;;;;6.90;3.00;;;13.40;99.90;;;;;;4174906;28;20500;-67
2021/06/07 01:04:29;;;;;;;3.17;2.87;;;13.50;99.90;;;;;;4173729;28;20036;-66
2021/06/07 01:06:31;;;;;;;4.83;3.07;;;13.50;99.90;;;;;;4175660;28;20078;-67
2021/06/07 01:08:32;;;;;;;6.20;2.47;;;13.50;99.90;;;;;;4172634;28;20538;-67
2021/06/07 01:10:34;;;;;;;6.13;3.07;;;13.50;99.90;;;;;;4175265;28;20598;-67
2021/06/07 01:12:35;;;;;;;4.27;3.13;;;13.40;99.90;;;;;;4173832;28;20029;-66
2021/06/07 01:14:36;;;;;;;6.67;3.30;;;13.30;99.90;;;;;;4174788;28;20143;-66
2021/06/07 01:16:37;;;;;;;4.93;3.30;;;13.20;99.90;;;;;;4173636;28;20037;-66
2021/06/07 01:18:39;;;;;;;8.33;3.00;;;13.10;99.90;;;;;;4174496;28;20629;-67
2021/06/07 01:20:40;;;;;;;4.57;3.57;;;13.00;99.90;;;;;;4174489;28;20033;-67
2021/06/07 01:22:42;;;;;;;6.47;3.30;;;13.00;99.90;;;;;;4173819;28;20086;-66
2021/06/07 01:24:43;;;;;;;4.43;3.30;;;12.90;99.90;;;;;;4172911;28;20123;-66
2021/06/07 01:26:44;;;;;;;3.60;3.00;;;12.80;99.90;;;;;;4172221;28;20045;-67
2021/06/07 01:28:46;;;;;;;5.73;3.30;;;12.80;99.90;;;;;;4174656;28;20045;-66
2021/06/07 01:30:50;;;;;;;4.73;3.10;;;12.80;99.90;;;;;;4173535;28;20090;-67
2021/06/07 01:32:51;;;;;;;3.77;3.37;;;12.80;99.90;;;;;;4174529;28;20078;-66
2021/06/07 01:34:52;;;;;;;5.53;3.00;;;12.70;99.90;;;;;;4173559;28;20029;-67
2021/06/07 01:36:53;;;;;;;5.63;3.00;;;12.60;99.90;;;;;;4174250;28;20029;-67
2021/06/07 01:38:55;;;;;;;3.60;2.63;;;12.60;99.90;;;;;;4173423;28;20485;-66
2021/06/07 01:40:59;;;;;;;5.50;3.10;;;12.50;99.90;;;;;;4174630;28;20029;-66
2021/06/07 01:43:01;;;;;;;5.53;3.10;;;12.50;99.90;;;;;;4173493;28;20106;-66
2021/06/07 01:45:06;;;;;;;5.13;3.10;;;12.50;99.90;;;;;;4174106;28;20099;-66
2021/06/07 01:47:07;;;;;;;3.30;3.00;;;12.50;99.90;;;;;;4173244;28;20029;-66
2021/06/07 01:49:08;;;;;;;5.57;3.30;;;12.50;99.90;;;;;;4174176;28;20026;-66
2021/06/07 01:51:09;;;;;;;5.93;3.10;;;12.50;99.90;;;;;;4173964;28;20543;-66
2021/06/07 01:53:12;;;;;;;6.27;3.20;;;12.50;99.90;;;;;;4171780;28;20063;-67
2021/06/07 01:55:16;;;;;;;4.93;3.10;;;12.50;99.90;;;;;;4173738;28;20481;-68
2021/06/07 01:57:18;;;;;;;2.90;2.63;;;12.50;99.90;;;;;;4172994;28;20053;-67
2021/06/07 01:59:20;;;;;;;7.93;3.80;;;12.50;99.90;;;;;;4173941;28;20041;-65
2021/06/07 02:01:21;;;;;;;4.97;3.63;;;12.50;99.90;;;;;;4154799;28;20045;-67
2021/06/07 02:03:23;;;;;;;3.90;3.30;;;12.50;99.90;;;;;;4173891;28;20825;-67
2021/06/07 02:05:27;;;;;;;6.37;3.20;;;12.50;99.90;;;;;;4173132;28;20080;-68
2021/06/07 02:07:28;;;;;;;8.97;2.97;;;12.50;99.90;;;;;;4172777;28;20037;-68
2021/06/07 02:09:29;;;;;;;3.40;2.60;;;12.50;99.90;;;;;;4172763;28;20479;-67
2021/06/07 02:11:30;;;;;;;6.00;3.00;;;12.50;99.90;;;;;;4174064;28;20151;-67
2021/06/07 02:13:34;;;;;;;4.00;2.97;;;12.50;99.90;;;;;;4172476;28;20037;-68
2021/06/07 02:15:35;;;;;;;5.30;2.90;;;12.50;99.90;;;;;;4173886;28;20037;-68
2021/06/07 02:17:38;;;;;;;4.30;3.00;;;12.50;99.90;;;;;;4172849;28;20024;-68
2021/06/07 02:19:41;;;;;;;3.70;2.83;;;12.50;99.90;;;;;;4172031;28;20029;-66
2021/06/07 02:21:42;;;;;;;5.47;3.13;;;12.50;99.90;;;;;;4173223;28;20074;-66
2021/06/07 02:23:45;;;;;;;4.47;3.23;;;12.50;99.90;;;;;;4173306;28;20037;-66
2021/06/07 02:25:46;;;;;;;7.07;3.50;;;12.40;99.90;;;;;;4172274;28;20067;-66
2021/06/07 02:27:48;;;;;;;6.77;3.37;;;12.40;99.90;;;;;;4173169;28;20087;-67
2021/06/07 02:29:49;;;;;;;10.40;3.70;;;12.50;99.90;;;;;;4172997;28;21027;-66
2021/06/07 02:31:51;;;;;;;4.03;3.20;;;12.50;99.90;;;;;;4172650;28;20473;-66
2021/06/07 02:33:53;;;;;;;6.77;2.87;;;12.50;99.90;;;;;;4173369;28;20083;-66
2021/06/07 02:35:55;;;;;;;5.07;2.63;;;12.50;99.90;;;;;;4172118;28;20053;-66
2021/06/07 02:37:56;;;;;;;4.37;2.80;;;12.60;99.90;;;;;;4172736;28;20037;-67
2021/06/07 02:39:58;;;;;;;5.73;2.93;;;12.70;99.90;;;;;;4170722;28;20091;-66
2021/06/07 02:41:59;;;;;;;7.20;2.63;;;12.70;99.90;;;;;;4173294;28;20029;-67
2021/06/07 02:44:00;;;;;;;5.17;2.80;;;12.80;99.90;;;;;;4172403;28;20025;-66
2021/06/07 02:46:02;;;;;;;3.73;2.50;;;12.90;99.90;;;;;;4172895;28;20543;-66
2021/06/07 02:48:04;;;;;;;4.43;3.47;;;13.00;99.90;;;;;;4155796;28;20091;-68
2021/06/07 02:50:09;;;;;;;4.53;2.80;;;13.20;99.90;;;;;;4157285;28;20029;-67
2021/06/07 02:52:10;;;;;;;5.43;2.90;;;13.30;99.90;;;;;;4155243;28;20448;-67
2021/06/07 02:54:11;;;;;;;4.13;3.33;;;13.50;99.90;;;;;;4156545;28;20087;-68
2021/06/07 02:56:13;;;;;;;4.00;2.90;;;13.70;99.90;;;;;;4156024;28;20468;-68
2021/06/07 02:58:16;;;;;;;4.07;3.00;;;13.90;99.90;;;;;;4156641;28;20045;-68
2021/06/07 03:00:28;;;;;;;6.07;3.30;;;14.10;99.90;;;;;;4156171;28;20091;-67
2021/06/07 03:02:30;;;;;;;4.77;3.37;;;14.30;99.90;;;;;;4156198;28;20072;-68
2021/06/07 03:04:31;;;;;;;5.97;3.40;;;14.50;99.90;;;;;;4155745;28;20021;-68
2021/06/07 03:06:32;;;;;;;3.70;2.73;;;14.80;99.90;;;;;;4156002;28;20036;-67
2021/06/07 03:08:35;;;;;;;5.30;2.60;;;15.00;99.90;;;;;;4156143;28;20103;-67
2021/06/07 03:10:37;;;;;;;4.13;2.90;;;15.20;99.90;;;;;;4137715;28;20553;-65
2021/06/07 03:12:39;;;;;;;7.10;2.97;;;15.40;99.90;;;;;;4138669;28;20034;-67
2021/06/07 03:14:42;;;;;;;4.83;2.93;;;15.60;99.90;;;;;;4155807;28;20045;-67
2021/06/07 03:16:44;;;;;;;3.23;2.67;;;15.80;99.90;;;;;;4156259;28;20029;-67
2021/06/07 03:18:45;;;;;;;4.73;3.37;;;16.10;99.90;;;;;;4155456;28;20104;-67
2021/06/07 03:20:46;;;;;;;4.80;3.40;;;16.40;99.90;;;;;;4138949;28;20600;-68
2021/06/07 03:22:47;;;;;;;4.60;2.70;;;16.70;99.90;;;;;;4155552;28;20049;-67
2021/06/07 03:24:50;;;;;;;7.37;3.20;;;16.90;99.90;;;;;;4155779;28;20045;-66
2021/06/07 03:26:51;;;;;;;7.07;3.17;;;17.20;99.90;;;;;;4155413;28;20068;-67
2021/06/07 03:28:52;;;;;;;8.60;3.20;;;17.40;99.90;;;;;;4156339;28;20094;-67
2021/06/07 03:30:54;;;;;;;3.95;2.60;;;17.50;99.90;;;;;;4161316;28;20049;-65
2021/06/07 03:32:56;;;;;;;5.75;3.30;;;17.70;99.90;;;;;;4172532;28;20033;-67
2021/06/07 03:34:57;;;;;;;3.63;3.00;;;17.80;99.90;;;;;;4172173;28;20036;-66
2021/06/07 03:36:58;;;;;;;4.50;2.70;;;17.80;99.90;;;;;;4171064;28;20719;-65
2021/06/07 03:38:59;;;;;;;4.60;3.03;;;17.90;99.90;;;;;;4170578;28;20028;-67
2021/06/07 03:41:01;;;;;;;6.05;2.78;;;18.00;99.90;;;;;;4171727;28;20063;-66
2021/06/07 03:43:04;;;;;;;11.68;3.00;;;18.20;99.90;;;;;;4172319;28;20037;-66
2021/06/07 03:45:08;;;;;;;6.28;2.72;;;18.30;99.90;;;;;;4171501;28;20792;-66
2021/06/07 03:47:09;;;;;;;5.18;2.67;;;18.30;99.90;;;;;;4171702;28;20110;-66
2021/06/07 03:49:10;;;;;;;3.22;2.50;;;18.70;99.90;;;;;;4174671;28;20146;-65
2021/06/07 03:51:11;;;;;;;4.72;2.72;;;19.00;99.90;;;;;;4175987;28;20361;-66
2021/06/07 03:53:13;;;;;;;4.15;2.10;;;19.20;99.90;;;;;;4174279;28;20194;-66
2021/06/07 03:55:17;;;;;;;2.78;2.42;;;19.60;99.90;;;;;;4158063;28;20037;-66
2021/06/07 03:57:18;;;;;;;7.57;2.38;;;19.80;99.90;;;;;;4174516;28;20074;-67
2021/06/07 03:59:19;;;;;;;4.28;2.28;;;20.20;99.90;;;;;;4175446;28;20036;-65
2021/06/07 04:01:20;;;;;;;2.67;2.20;;;20.50;99.90;;;;;;4162356;28;20029;-65
2021/06/07 04:03:21;;;;;;;2.78;2.10;;;20.80;99.90;;;;;;4160077;28;20045;-66
2021/06/07 04:05:23;;;;;;;7.53;2.30;;;20.90;99.10;;;;;;4167249;28;20021;-66
2021/06/07 04:07:24;;;;;;;4.20;3.13;;;21.20;98.70;;;;;;4158688;28;20174;-66
2021/06/07 04:09:26;;;;;;;4.28;2.10;;;21.30;97.60;;;;;;4157152;28;20460;-66
2021/06/07 04:11:28;;;;;;;3.03;2.40;;;21.30;97.00;;;;;;4158438;28;20021;-67
2021/06/07 04:13:29;;;;;;;3.45;2.03;;;21.50;96.50;;;;;;4157433;28;20501;-64
2021/06/07 04:15:30;;;;;;;3.80;2.05;;;21.40;95.80;;;;;;4156730;28;20099;-64
2021/06/07 04:17:32;;;;;;;5.30;2.33;;;21.40;95.60;;;;;;4158417;28;20515;-66
2021/06/07 04:19:34;;;;;;;4.00;2.17;;;21.40;95.30;;;;;;4157253;28;20021;-67
2021/06/07 04:21:37;;;;;;;3.35;2.03;;;21.70;95.00;;;;;;4158731;28;20539;-67
2021/06/07 04:23:39;;;;;;;6.32;2.15;;;22.30;94.10;;;;;;4157159;28;20114;-64
2021/06/07 04:25:40;;;;;;;11.40;2.33;;;22.80;92.90;;;;;;4158650;28;20025;-65
2021/06/07 04:27:42;;;;;;;3.97;2.13;;;22.80;92.20;;;;;;4157064;28;20091;-63
2021/06/07 04:29:44;;;;;;;3.35;2.47;;;23.20;91.50;;;;;;4158711;28;20030;-65
2021/06/07 04:31:45;;;;;;;4.07;2.20;;;23.80;90.70;;;;;;4171721;28;20098;-65
2021/06/07 04:33:46;;;;;;;2.72;1.95;;;24.10;88.50;;;;;;4175004;28;20086;-65
2021/06/07 04:35:48;;;;;;;3.28;2.00;;;24.40;86.90;;;;;;4173790;28;20389;-65
2021/06/07 04:37:59;;;;;;;4.13;1.58;;;25.00;84.60;;;;;;4173317;28;20037;-65
2021/06/07 04:40:00;;;;;;;9.60;2.28;;;;;;;;;;4173069;28;20095;-66
2021/06/07 04:42:01;;;;;;;7.00;2.38;;;;;;;;;;4174364;28;20041;-65
2021/06/07 04:44:03;;;;;;;4.32;2.38;;;;;;;;;;4173611;28;20481;-65
2021/06/07 04:46:04;;;;;;;5.55;2.00;;;25.30;82.00;;;;;;4174068;28;20046;-65
2021/06/07 04:48:25;;;;;;;4.78;2.08;;;25.70;76.00;;;;;;4173489;28;20099;-65
2021/06/07 04:50:28;;;;;;;3.35;2.20;;;;;;;;;;4172942;28;20099;-65
2021/06/07 04:52:29;;;;;;;6.88;2.55;;;;;;;;;;4174989;28;20075;-65
2021/06/07 04:54:31;;;;;;;3.88;1.98;;;;;;;;;;4174381;28;20126;-64
2021/06/07 04:56:32;;;;;;;3.40;1.85;;;;;;;;;;4159873;28;20460;-63
2021/06/07 04:58:34;;;;;;;4.03;1.95;;;;;;;;;;4156013;28;20045;-64
2021/06/07 05:00:35;;;;;;;3.72;1.85;;;;;;;;;;4156744;28;20037;-66
2021/06/07 05:02:37;;;;;;;5.82;1.73;;;;;;;;;;4156689;28;20520;-64
2021/06/07 05:04:38;;;;;;;3.72;2.35;;;;;;;;;;4157900;28;20457;-64
2021/06/07 05:06:39;;;;;;;3.92;1.60;;;25.90;75.60;;;;;;4156638;28;20038;-66
2021/06/07 05:08:41;;;;;;;5.85;2.38;;;26.50;67.10;;;;;;4158243;28;20029;-64
2021/06/07 05:10:42;;;;;;;3.67;2.13;;;;;;;;;;4156558;28;20041;-64
2021/06/07 05:12:44;;;;;;;3.15;1.80;;;26.50;66.90;;;;;;4157188;28;20042;-65
2021/06/07 05:14:46;;;;;;;4.65;1.60;;;26.20;66.20;;;;;;4156688;28;20087;-65
2021/06/07 05:16:48;;;;;;;9.35;1.88;;;25.70;66.40;;;;;;4157866;28;20099;-65
2021/06/07 05:18:49;;;;;;;4.60;2.10;;;25.00;67.10;;;;;;4156120;28;20087;-64
2021/06/07 05:20:50;;;;;;;4.63;1.83;;;24.80;67.70;;;;;;4156336;28;20094;-64
2021/06/07 05:22:53;;;;;;;4.97;2.95;;;25.10;67.90;;;;;;4155985;28;20067;-64
2021/06/07 05:24:55;;;;;;;4.53;3.63;;;25.20;67.60;;;;;;4156962;28;20535;-65
2021/06/07 05:26:56;;;;;;;10.65;5.47;;;25.30;68.20;;;;;;4157391;28;20779;-64
2021/06/07 05:28:57;;;;;;;6.35;3.83;;;;;;;;;;4156295;28;20049;-65
2021/06/07 05:30:59;;;;;;;5.38;3.03;;;;;;;;;;4157389;28;20025;-65
2021/06/07 05:33:00;;;;;;;2.95;2.15;;;;;;;;;;4138270;28;20030;-64
2021/06/07 05:35:02;;;;;;;4.40;2.38;;;;;;;;;;4157868;28;20151;-64
2021/06/07 05:37:03;;;;;;;3.97;1.88;;;;;;;;;;4137876;28;20038;-64
2021/06/07 05:39:05;;;;;;;5.43;2.10;;;;;;;;;;4157482;28;20033;-64
2021/06/07 05:41:06;;;;;;;4.53;2.00;;;;;;;;;;4156355;28;20035;-65
2021/06/07 05:43:08;;;;;;;5.85;2.35;;;;;;;;;;4157305;28;20046;-65
2021/06/07 05:45:10;;;;;;;4.47;2.30;;;;;;;;;;4156520;28;20114;-63
2021/06/07 05:47:11;;;;;;;2.25;2.05;;;;;;;;;;4157061;28;20167;-64
2021/06/07 05:49:13;;;;;;;9.45;3.03;;;;;;;;;;4156768;28;20029;-64
2021/06/07 05:51:14;;;;;;;10.23;3.33;;;;;;;;;;4156981;28;20030;-64
2021/06/07 05:53:17;;;;;;;6.90;3.30;;;;;;;;;;4156045;28;20091;-64
2021/06/07 05:55:20;;;;;;;7.85;3.20;;;;;;;;;;4156306;28;20366;-65
2021/06/07 05:57:22;;;;;;;6.63;3.30;;;;;;;;;;4156527;28;20528;-64
2021/06/07 05:59:23;;;;;;;14.27;3.78;;;;;;;;;;4155505;28;20041;-64
2021/06/07 06:01:25;;;;;;;5.97;3.42;;;;;;;;;;4157096;28;20473;-64
2021/06/07 06:03:29;;;;;;;5.10;3.30;;;;;;;;;;4155947;28;20819;-64
2021/06/07 06:05:30;;;;;;;9.50;3.33;;;;;;;;;;4157009;28;20084;-64
2021/06/07 06:07:32;;;;;;;4.60;2.78;;;;;;;;;;4156058;28;21018;-65
2021/06/07 06:09:33;;;;;;;3.30;2.63;;;;;;;;;;4156824;28;20134;-64
2021/06/07 06:11:35;;;;;;;6.85;2.50;;;;;;;;;;4155881;28;20034;-64
2021/06/07 06:13:36;;;;;;;8.50;2.55;;;;;;;;;;4156043;28;20127;-65
2021/06/07 06:15:38;;;;;;;4.03;3.53;;;;;;;;;;4154834;28;20083;-64
2021/06/07 06:17:39;;;;;;;6.30;2.65;;;;;;;;;;4156714;28;20034;-64
2021/06/07 06:19:40;;;;;;;9.27;2.35;;;;;;;;;;4156234;28;20029;-64
2021/06/07 06:21:47;;;;;;;4.40;2.45;;;;;;;;;;4156013;28;20091;-64
2021/06/07 06:23:48;;;;;;;8.25;3.03;;;;;;;;;;4155640;28;20099;-64
2021/06/07 06:25:50;;;;;;;12.05;4.97;;;;;;;;;;4156725;28;20079;-64
2021/06/07 06:27:52;;;;;;;10.75;3.67;;;;;;;;;;4138779;28;20399;-64
2021/06/07 06:29:53;;;;;;;9.57;3.80;;;25.80;67.70;;;;;;4156136;28;20466;-64
2021/06/07 06:31:54;;;;;;;7.28;3.20;;;25.80;63.40;;;;;;4155705;28;20041;-64
2021/06/07 06:33:56;;;;;;;6.95;3.50;;;25.50;64.20;;;;;;4154947;28;20445;-64
2021/06/07 06:35:57;;;;;;;8.05;3.63;;;25.10;64.90;;;;;;4155783;28;20727;-64
2021/06/07 06:37:58;;;;;;;9.40;4.30;;;24.60;66.30;;;;;;4155714;28;20096;-65
2021/06/07 06:40:00;;;;;;;9.35;3.70;;;24.20;67.60;;;;;;4155942;28;20616;-64
2021/06/07 06:42:03;;;;;;;9.45;3.85;;;23.80;68.80;;;;;;4155915;28;20437;-64
2021/06/07 06:44:04;;;;;;;13.48;4.00;;;23.50;69.80;;;;;;4138742;28;20100;-64
2021/06/07 06:46:06;;;;;;;9.77;3.70;;;23.40;70.60;;;;;;4155167;28;20406;-63
2021/06/07 06:48:07;;;;;;;6.95;3.25;;;23.50;71.30;;;;;;4156919;28;20472;-65
2021/06/07 06:50:10;;;;;;;9.43;2.80;;;23.20;72.40;;;;;;4156098;28;20029;-65
2021/06/07 06:52:11;;;;;;;7.18;3.10;;;22.90;73.70;;;;;;4155145;28;20075;-66
2021/06/07 06:54:12;;;;;;;5.55;2.95;;;22.70;74.30;;;;;;4155219;28;20088;-65
2021/06/07 06:56:13;;;;;;;3.03;2.15;;;22.70;75.10;;;;;;4155430;28;20115;-65
2021/06/07 06:58:16;;;;;;;3.63;2.95;;;22.50;75.80;;;;;;4155515;28;20092;-65
2021/06/07 07:00:17;;;;;;;5.68;2.90;;;22.30;76.70;;;;;;4155657;28;20824;-65
2021/06/07 07:02:19;;;;;;;3.42;2.65;;;22.10;78.30;;;;;;4155855;28;20080;-65
2021/06/07 07:04:20;;;;;;;5.45;2.80;;;22.20;78.60;;;;;;4154787;28;20478;-65
2021/06/07 07:06:25;;;;;;;7.05;2.65;;;22.20;78.60;;;;;;4156111;28;20029;-64
2021/06/07 07:08:29;;;;;;;2.67;1.92;;;22.30;78.80;;;;;;4154412;28;20445;-65
2021/06/07 07:10:32;;;;;;;1.85;1.75;;;22.20;78.20;;;;;;4155386;28;20885;-65
2021/06/07 07:12:33;;;;;;;2.70;1.90;;;22.10;78.20;;;;;;4154753;28;20029;-64
2021/06/07 07:14:34;;;;;;;5.35;1.80;;;22.30;77.90;;;;;;4155470;28;20030;-64
2021/06/07 07:16:35;;;;;;;1.75;1.63;;;22.50;77.70;;;;;;4154515;28;20168;-65
2021/06/07 07:18:37;;;;;;;3.25;1.65;;;22.80;76.80;;;;;;4155658;28;20462;-65
2021/06/07 07:20:38;;;;;;;1.88;1.50;;;23.00;75.90;;;;;;4155606;28;20021;-65
2021/06/07 07:22:40;;;;;;;1.70;1.55;;;23.00;75.10;;;;;;4155714;28;20070;-64
2021/06/07 07:24:44;;;;;;;6.47;1.90;;;22.90;74.50;;;;;;4155030;28;20041;-65
2021/06/07 07:26:45;;;;;;;3.42;2.25;;;22.70;75.60;;;;;;4156022;28;20449;-64
2021/06/07 07:28:46;;;;;;;4.78;2.10;;;22.80;76.40;;;;;;4155305;28;20087;-64
2021/06/07 07:30:48;;;;;;;6.60;2.38;;;22.80;76.70;;;;;;4155455;28;20408;-65
2021/06/07 07:32:50;;;;;;;4.22;2.85;;;22.70;77.40;;;;;;4155028;28;20368;-64
2021/06/07 07:34:52;;;;;;;6.57;2.65;;;22.60;78.30;;;;;;4155239;28;20029;-64
2021/06/07 07:36:53;;;;;;;4.18;2.30;;;22.70;78.50;;;;;;4155512;28;20092;-64
2021/06/07 07:38:54;;;;;;;5.70;2.58;;;23.00;78.50;;;;;;4155014;28;20037;-64
2021/06/07 07:40:56;;;;;;;6.28;1.90;;;23.10;78.10;;;;;;4155033;28;20061;-64
2021/06/07 07:42:57;;;;;;;4.65;2.30;;;23.10;78.30;;;;;;4154218;28;20037;-64
2021/06/07 07:45:01;;;;;;;5.95;2.15;;;23.20;78.40;;;;;;4155740;28;20096;-65
2021/06/07 07:47:06;;;;;;;5.00;2.08;;;23.50;78.80;;;;;;4154163;28;20042;-64
2021/06/07 07:49:07;;;;;;;4.60;2.20;;;23.60;77.70;;;;;;4155074;28;20111;-64
2021/06/07 07:51:08;;;;;;;5.72;2.30;;;23.70;77.60;;;;;;4154170;28;20053;-64
2021/06/07 07:53:09;;;;;;;5.00;2.08;;;23.70;77.40;;;;;;4155706;28;20151;-64
2021/06/07 07:55:13;;;;;;;4.40;2.00;;;23.50;77.40;;;;;;4154872;28;20042;-64
2021/06/07 07:57:14;;;;;;;5.30;1.80;;;23.70;77.70;;;;;;4155656;28;20045;-64
2021/06/07 07:59:15;;;;;;;3.97;1.90;;;23.90;77.50;;;;;;4154740;28;20033;-64
2021/06/07 08:01:16;;;;;;;1.98;1.80;;;24.30;77.20;;;;;;4155372;28;20470;-64
2021/06/07 08:03:18;;;;;;;2.10;1.90;;;24.80;76.30;;;;;;4154753;28;20816;-64
2021/06/07 08:05:20;;;;;;;2.92;2.00;;;25.00;74.90;;;;;;4155461;28;20029;-64
2021/06/07 08:07:21;;;;;;;4.20;2.00;;;25.10;74.80;;;;;;4154997;28;20021;-64
2021/06/07 08:09:23;;;;;;;5.82;2.08;;;25.30;74.50;;;;;;4155134;28;20053;-64
2021/06/07 08:11:24;;;;;;;4.50;1.90;;;25.30;74.20;;;;;;4155488;28;20627;-64
2021/06/07 08:13:25;;;;;;;6.75;2.83;;;25.30;73.50;;;;;;4154880;28;20083;-64
2021/06/07 08:15:27;;;;;;;3.00;1.73;;;25.00;73.10;;;;;;4154870;28;21160;-64
2021/06/07 08:17:28;;;;;;;3.92;2.17;;;24.50;72.00;;;;;;4154561;28;20574;-64
2021/06/07 08:19:30;;;;;;;4.05;2.25;;;24.10;73.20;;;;;;4155643;28;20037;-64
2021/06/07 08:21:31;;;;;;;3.13;1.60;;;23.90;73.80;;;;;;4154053;28;20091;-64
2021/06/07 08:23:32;;;;;;;4.13;1.98;;;23.90;74.50;;;;;;4154944;28;20428;-64
2021/06/07 08:25:33;;;;;;;3.72;1.95;;;24.10;73.60;;;;;;4136573;28;20422;-63
2021/06/07 08:27:35;;;;;;;6.18;2.17;;;24.30;73.60;;;;;;4154982;28;20678;-64
2021/06/07 08:29:37;;;;;;;3.90;2.05;;;24.40;73.70;;;;;;4153757;28;20034;-64
2021/06/07 08:31:38;;;;;;;5.97;2.05;;;24.30;73.70;;;;;;4155599;28;20033;-64
2021/06/07 08:33:40;;;;;;;5.05;1.98;;;24.20;73.90;;;;;;4154228;28;20033;-64
2021/06/07 08:35:41;;;;;;;2.67;1.98;;;24.10;74.20;;;;;;4157681;28;20539;-64
2021/06/07 08:37:42;;;;;;;3.05;1.70;;;24.20;74.20;;;;;;4157248;28;20025;-64
2021/06/07 08:39:44;;;;;;;5.65;2.05;;;24.00;74.50;;;;;;4157561;28;20088;-63
2021/06/07 08:41:45;;;;;;;3.78;1.98;;;24.00;74.50;;;;;;4156889;28;20045;-63
2021/06/07 08:43:47;;;;;;;3.83;1.98;;;24.00;74.80;;;;;;4157235;28;20045;-65
2021/06/07 08:45:48;;;;;;;3.30;1.63;;;23.90;75.10;;;;;;4158116;28;20087;-64
2021/06/07 08:47:52;;;;;;;2.45;1.92;;;23.80;75.70;;;;;;4156586;28;20095;-64
2021/06/07 08:49:53;;;;;;;8.40;2.70;;;23.60;76.80;;;;;;4158292;28;20025;-65
2021/06/07 08:51:54;;;;;;;6.40;1.98;;;23.70;77.30;;;;;;4157327;28;20385;-64
2021/06/07 08:53:55;;;;;;;2.42;2.13;;;23.60;77.20;;;;;;4158139;28;20034;-64
2021/06/07 08:55:57;;;;;;;3.35;1.67;;;23.70;77.70;;;;;;4156775;28;20037;-63
2021/06/07 08:57:58;;;;;;;3.42;1.80;;;23.70;78.10;;;;;;4158294;28;20037;-64
2021/06/07 08:59:59;;;;;;;3.60;1.90;;;23.40;78.70;;;;;;4156003;28;20103;-64
2021/06/07 09:02:04;;;;;;;5.70;1.85;;;23.40;79.10;;;;;;4157265;28;20034;-64
2021/06/07 09:04:16;;;;;;;5.85;2.33;;;23.70;78.70;;;;;;4156976;28;20091;-64
2021/06/07 09:06:26;;;;;;;2.75;2.20;;;23.90;78.30;;;;;;4157810;28;20888;-65
2021/06/07 09:08:33;;;;;;;2.55;2.10;;;24.00;77.30;;;;;;4156972;28;20037;-64
2021/06/07 09:10:57;;;;;;;3.72;2.22;;;24.10;78.10;;;;;;4157654;28;20105;-64
2021/06/07 09:13:05;;;;;;;2.92;2.15;;;23.90;78.50;;;;;;4156209;28;20029;-65
2021/06/07 09:15:07;;;;;;;2.28;1.70;;;23.90;77.70;;;;;;4157437;28;20049;-64
2021/06/07 09:17:18;;;;;;;2.42;2.00;;;24.00;77.60;;;;;;4156096;28;20053;-64
2021/06/07 09:19:31;;;;;;;6.25;1.98;;;24.00;75.40;;;;;;4157486;28;20045;-64
2021/06/07 09:21:32;;;;;;;3.75;1.60;;;24.10;75.10;;;;;;4156613;28;20029;-65
2021/06/07 09:23:45;;;;;;;2.95;1.73;;;24.10;76.10;;;;;;4157602;28;20036;-65
2021/06/07 09:25:47;;;;;;;4.50;1.48;;;24.30;75.30;;;;;;4156587;28;20117;-64
2021/06/07 09:28:14;;;;;;;3.25;1.35;;;24.50;75.00;;;;;;4156449;28;20115;-63
2021/06/07 09:30:25;;;;;;;5.32;1.70;;;24.60;71.90;;;;;;4156039;28;20021;-64
2021/06/07 09:32:27;;;;;;;2.72;1.83;;;24.80;72.90;;;;;;4157079;28;20108;-64
2021/06/07 09:34:35;;;;;;;4.20;1.50;;;24.90;73.40;;;;;;4155663;28;20062;-64
2021/06/07 09:36:41;;;;;;;4.38;2.17;;;24.80;73.60;;;;;;4156192;28;20497;-65
2021/06/07 09:39:05;;;;;;;8.00;2.08;;;24.80;72.50;;;;;;4156169;28;20425;-64
2021/06/07 09:41:06;;;;;;;3.55;1.27;;;24.50;70.00;;;;;;4156210;28;20115;-65
2021/06/07 09:43:07;;;;;;;3.00;1.10;;;24.20;71.00;;;;;;4154919;28;20099;-65
2021/06/07 09:45:09;;;;;;;6.18;1.70;;;24.10;70.60;;;;;;4157052;28;20075;-66
2021/06/07 09:47:20;;;;;;;4.80;2.00;;;24.10;71.30;;;;;;4155480;28;20642;-65
2021/06/07 09:49:22;;;;;;;2.88;1.73;;;24.20;71.50;;;;;;4156874;28;20042;-65
2021/06/07 09:51:23;;;;;;;2.63;1.52;;;24.20;72.50;;;;;;4156495;28;20194;-65
2021/06/07 09:53:43;;;;;;;6.20;1.55;;;24.30;72.80;;;;;;4156498;28;20026;-65
2021/06/07 09:55:45;;;;;;;10.63;2.15;;;24.40;73.00;;;;;;4155595;28;20095;-64
2021/06/07 09:57:51;;;;;;;3.28;1.50;;;24.70;72.70;;;;;;4156686;28;20064;-65
2021/06/07 09:59:52;;;;;;;3.80;1.60;;;24.70;71.50;;;;;;4155416;28;20087;-65
2021/06/07 10:01:56;;;;;;;4.50;1.20;;;24.60;70.10;;;;;;4138466;28;20038;-65
2021/06/07 10:03:59;;;;;;;3.60;1.20;;;24.40;69.10;;;;;;4156879;28;20587;-64
2021/06/07 10:06:02;;;;;;;2.55;1.13;;;24.40;69.10;;;;;;4155876;28;20543;-64
2021/06/07 10:08:03;;;;;;;4.25;1.15;;;24.40;68.40;;;;;;4156383;28;20033;-65
2021/06/07 10:10:19;;;;;;;1.58;1.30;;;24.40;67.90;;;;;;4155336;28;20084;-65
2021/06/07 10:12:26;;;;;;;1.50;0.98;;;24.40;66.80;;;;;;4156707;28;20079;-64
2021/06/07 10:14:27;;;;;;;3.75;1.10;;;24.50;66.90;;;;;;4154953;28;20041;-64
2021/06/07 10:16:28;;;;;;;1.30;1.10;;;24.60;66.90;;;;;;4156447;28;20038;-65
2021/06/07 10:18:30;;;;;;;3.35;1.35;;;24.70;66.50;;;;;;4155100;28;20115;-65
2021/06/07 10:22:38;;;;;;;2.70;0.88;;;24.70;65.60;;;;;;4157839;28;20021;-65
2021/06/07 10:24:40;;;;;;;5.20;0.98;;;24.80;65.80;;;;;;4156807;28;20037;-65
2021/06/07 10:26:43;;;;;;;3.17;1.38;;;25.00;65.80;;;;;;4137117;28;20040;-65
2021/06/07 10:28:47;;;;;;;2.70;1.33;;;25.10;65.10;;;;;;4157069;28;20021;-65
2021/06/07 10:30:48;;;;;;;1.77;0.90;;;25.30;64.70;;;;;;4154705;28;20045;-65
2021/06/07 10:32:51;;;;;;;2.45;1.17;;;25.50;64.30;;;;;;4156320;28;20064;-65
2021/06/07 10:35:02;;;;;;;2.05;1.00;;;25.50;63.70;;;;;;4155661;28;20103;-65
2021/06/07 10:37:03;;;;;;;6.82;1.20;;;25.50;63.50;;;;;;4156304;28;20095;-63
2021/06/07 10:39:17;;;;;;;5.30;1.50;;;25.30;63.20;;;;;;4155825;28;20081;-64
2021/06/07 10:41:24;;;;;;;3.90;1.35;;;24.90;63.70;;;;;;4155697;28;20046;-65
2021/06/07 10:43:45;;;;;;;5.88;2.05;;;24.60;64.00;;;;;;4155174;28;20096;-65
2021/06/07 10:45:46;;;;;;;17.90;2.58;;;24.50;64.40;;;;;;4156627;28;20041;-65
2021/06/07 10:47:48;;;;;;;6.35;2.25;;;24.50;65.60;;;;;;4155386;28;20099;-65
2021/06/07 10:49:56;;;;;;;3.03;1.40;;;24.50;65.50;;;;;;4156050;28;21102;-66
2021/06/07 10:52:07;;;;;;;2.72;1.83;;;24.60;65.10;;;;;;4156041;28;20033;-66